sensor_id;sensor_type;location;lat;lon;timestamp;P1;durP1;ratioP1;P2;durP2;ratioP2
11496;SDS011;5805;51.542;7.230;2023-12-07T00:01:27;27.75;;;15.73;;
11496;SDS011;5805;51.542;7.230;2023-12-07T00:03:54;25.65;;;16.33;;
11496;SDS011;5805;51.542;7.230;2023-12-07T00:06:20;30.60;;;16.05;;
11496;SDS011;5805;51.542;7.230;2023-12-07T00:08:46;32.80;;;16.70;;
11496;SDS011;5805;51.542;7.230;2023-12-07T00:11:11;23.10;;;16.25;;
11496;SDS011;5805;51.542;7.230;2023-12-07T00:13:37;27.30;;;16.33;;
11496;SDS011;5805;51.542;7.230;2023-12-07T00:16:03;26.13;;;16.02;;
11496;SDS011;5805;51.542;7.230;2023-12-07T00:18:29;25.05;;;16.02;;
11496;SDS011;5805;51.542;7.230;2023-12-07T00:20:58;26.60;;;16.88;;
11496;SDS011;5805;51.542;7.230;2023-12-07T00:23:24;32.38;;;17.45;;
11496;SDS011;5805;51.542;7.230;2023-12-07T00:25:49;28.23;;;16.38;;
11496;SDS011;5805;51.542;7.230;2023-12-07T00:28:15;30.92;;;17.25;;
11496;SDS011;5805;51.542;7.230;2023-12-07T00:30:41;36.88;;;18.20;;
11496;SDS011;5805;51.542;7.230;2023-12-07T00:33:07;32.78;;;17.55;;
11496;SDS011;5805;51.542;7.230;2023-12-07T00:35:33;26.10;;;16.48;;
11496;SDS011;5805;51.542;7.230;2023-12-07T00:38:00;30.33;;;17.35;;
11496;SDS011;5805;51.542;7.230;2023-12-07T00:40:26;28.88;;;16.88;;
11496;SDS011;5805;51.542;7.230;2023-12-07T00:42:51;27.50;;;16.55;;
11496;SDS011;5805;51.542;7.230;2023-12-07T00:45:17;27.17;;;17.20;;
11496;SDS011;5805;51.542;7.230;2023-12-07T00:47:43;26.15;;;15.98;;
11496;SDS011;5805;51.542;7.230;2023-12-07T00:50:11;27.98;;;16.10;;
11496;SDS011;5805;51.542;7.230;2023-12-07T00:52:37;31.52;;;16.42;;
11496;SDS011;5805;51.542;7.230;2023-12-07T00:55:05;29.83;;;16.65;;
11496;SDS011;5805;51.542;7.230;2023-12-07T00:57:31;28.10;;;17.67;;
11496;SDS011;5805;51.542;7.230;2023-12-07T00:59:57;28.90;;;17.83;;
11496;SDS011;5805;51.542;7.230;2023-12-07T01:02:22;27.20;;;17.15;;
11496;SDS011;5805;51.542;7.230;2023-12-07T01:04:48;30.20;;;16.98;;
11496;SDS011;5805;51.542;7.230;2023-12-07T01:07:14;31.25;;;17.95;;
11496;SDS011;5805;51.542;7.230;2023-12-07T01:09:40;27.70;;;17.75;;
11496;SDS011;5805;51.542;7.230;2023-12-07T01:12:07;32.25;;;18.02;;
11496;SDS011;5805;51.542;7.230;2023-12-07T01:14:33;30.83;;;17.98;;
11496;SDS011;5805;51.542;7.230;2023-12-07T01:17:00;29.30;;;18.23;;
11496;SDS011;5805;51.542;7.230;2023-12-07T01:19:25;30.83;;;18.90;;
11496;SDS011;5805;51.542;7.230;2023-12-07T01:21:51;29.60;;;18.73;;
11496;SDS011;5805;51.542;7.230;2023-12-07T01:24:17;29.75;;;17.95;;
11496;SDS011;5805;51.542;7.230;2023-12-07T01:26:42;26.50;;;17.73;;
11496;SDS011;5805;51.542;7.230;2023-12-07T01:29:10;28.80;;;17.45;;
11496;SDS011;5805;51.542;7.230;2023-12-07T01:31:35;30.55;;;17.98;;
11496;SDS011;5805;51.542;7.230;2023-12-07T01:34:01;28.20;;;18.13;;
11496;SDS011;5805;51.542;7.230;2023-12-07T01:36:27;28.73;;;17.52;;
11496;SDS011;5805;51.542;7.230;2023-12-07T01:38:52;26.92;;;18.08;;
11496;SDS011;5805;51.542;7.230;2023-12-07T01:41:18;31.63;;;18.05;;
11496;SDS011;5805;51.542;7.230;2023-12-07T01:43:44;29.63;;;18.17;;
11496;SDS011;5805;51.542;7.230;2023-12-07T01:46:12;28.05;;;17.45;;
11496;SDS011;5805;51.542;7.230;2023-12-07T01:48:38;30.65;;;17.77;;
11496;SDS011;5805;51.542;7.230;2023-12-07T01:51:04;29.85;;;18.40;;
11496;SDS011;5805;51.542;7.230;2023-12-07T01:53:32;31.00;;;18.55;;
11496;SDS011;5805;51.542;7.230;2023-12-07T01:55:58;29.88;;;18.00;;
11496;SDS011;5805;51.542;7.230;2023-12-07T01:58:25;29.65;;;18.77;;
11496;SDS011;5805;51.542;7.230;2023-12-07T02:00:52;26.55;;;17.58;;
11496;SDS011;5805;51.542;7.230;2023-12-07T02:03:21;29.15;;;18.48;;
11496;SDS011;5805;51.542;7.230;2023-12-07T02:05:47;26.65;;;17.17;;
11496;SDS011;5805;51.542;7.230;2023-12-07T02:08:13;28.13;;;19.17;;
11496;SDS011;5805;51.542;7.230;2023-12-07T02:10:39;28.70;;;18.70;;
11496;SDS011;5805;51.542;7.230;2023-12-07T02:13:05;26.80;;;18.77;;
11496;SDS011;5805;51.542;7.230;2023-12-07T02:15:31;31.98;;;18.65;;
11496;SDS011;5805;51.542;7.230;2023-12-07T02:18:01;27.92;;;17.75;;
11496;SDS011;5805;51.542;7.230;2023-12-07T02:20:37;28.67;;;18.15;;
11496;SDS011;5805;51.542;7.230;2023-12-07T02:23:08;29.15;;;19.58;;
11496;SDS011;5805;51.542;7.230;2023-12-07T02:25:36;29.42;;;19.30;;
11496;SDS011;5805;51.542;7.230;2023-12-07T02:28:07;37.20;;;21.08;;
11496;SDS011;5805;51.542;7.230;2023-12-07T02:30:32;29.38;;;19.38;;
11496;SDS011;5805;51.542;7.230;2023-12-07T02:32:58;32.67;;;19.17;;
11496;SDS011;5805;51.542;7.230;2023-12-07T02:35:24;32.38;;;20.48;;
11496;SDS011;5805;51.542;7.230;2023-12-07T02:37:50;29.73;;;17.98;;
11496;SDS011;5805;51.542;7.230;2023-12-07T02:40:19;31.58;;;18.35;;
11496;SDS011;5805;51.542;7.230;2023-12-07T02:42:47;31.70;;;19.67;;
11496;SDS011;5805;51.542;7.230;2023-12-07T02:45:16;30.90;;;18.83;;
11496;SDS011;5805;51.542;7.230;2023-12-07T02:47:42;33.78;;;19.42;;
11496;SDS011;5805;51.542;7.230;2023-12-07T02:50:08;31.88;;;18.85;;
11496;SDS011;5805;51.542;7.230;2023-12-07T02:52:34;29.90;;;19.13;;
11496;SDS011;5805;51.542;7.230;2023-12-07T02:55:02;33.67;;;19.17;;
11496;SDS011;5805;51.542;7.230;2023-12-07T02:57:28;33.33;;;19.33;;
11496;SDS011;5805;51.542;7.230;2023-12-07T02:59:54;30.10;;;18.50;;
11496;SDS011;5805;51.542;7.230;2023-12-07T03:02:21;29.52;;;17.60;;
11496;SDS011;5805;51.542;7.230;2023-12-07T03:04:47;30.90;;;18.38;;
11496;SDS011;5805;51.542;7.230;2023-12-07T03:07:13;32.50;;;18.00;;
11496;SDS011;5805;51.542;7.230;2023-12-07T03:09:39;29.92;;;17.65;;
11496;SDS011;5805;51.542;7.230;2023-12-07T03:12:06;29.17;;;16.92;;
11496;SDS011;5805;51.542;7.230;2023-12-07T03:14:32;27.48;;;17.08;;
11496;SDS011;5805;51.542;7.230;2023-12-07T03:16:58;29.70;;;17.42;;
11496;SDS011;5805;51.542;7.230;2023-12-07T03:19:25;27.85;;;16.48;;
11496;SDS011;5805;51.542;7.230;2023-12-07T03:21:52;27.58;;;16.45;;
11496;SDS011;5805;51.542;7.230;2023-12-07T03:24:18;28.58;;;16.58;;
11496;SDS011;5805;51.542;7.230;2023-12-07T03:26:43;28.52;;;17.33;;
11496;SDS011;5805;51.542;7.230;2023-12-07T03:29:10;28.70;;;15.90;;
11496;SDS011;5805;51.542;7.230;2023-12-07T03:31:36;28.27;;;17.25;;
11496;SDS011;5805;51.542;7.230;2023-12-07T03:34:02;28.55;;;17.20;;
11496;SDS011;5805;51.542;7.230;2023-12-07T03:36:29;32.25;;;16.23;;
11496;SDS011;5805;51.542;7.230;2023-12-07T03:38:55;28.42;;;16.63;;
11496;SDS011;5805;51.542;7.230;2023-12-07T03:41:20;27.90;;;17.20;;
11496;SDS011;5805;51.542;7.230;2023-12-07T03:43:46;27.88;;;16.38;;
11496;SDS011;5805;51.542;7.230;2023-12-07T03:46:12;27.98;;;16.55;;
11496;SDS011;5805;51.542;7.230;2023-12-07T03:48:37;29.23;;;16.20;;
11496;SDS011;5805;51.542;7.230;2023-12-07T03:51:03;27.98;;;16.85;;
11496;SDS011;5805;51.542;7.230;2023-12-07T03:53:31;29.77;;;17.40;;
11496;SDS011;5805;51.542;7.230;2023-12-07T03:55:56;27.02;;;16.42;;
11496;SDS011;5805;51.542;7.230;2023-12-07T03:58:22;29.42;;;16.98;;
11496;SDS011;5805;51.542;7.230;2023-12-07T04:00:48;26.38;;;16.35;;
11496;SDS011;5805;51.542;7.230;2023-12-07T04:03:13;31.40;;;17.55;;
11496;SDS011;5805;51.542;7.230;2023-12-07T04:05:39;25.67;;;15.85;;
11496;SDS011;5805;51.542;7.230;2023-12-07T04:08:05;26.63;;;16.90;;
11496;SDS011;5805;51.542;7.230;2023-12-07T04:10:32;24.35;;;16.00;;
11496;SDS011;5805;51.542;7.230;2023-12-07T04:12:58;25.48;;;15.48;;
11496;SDS011;5805;51.542;7.230;2023-12-07T04:15:24;27.75;;;16.30;;
11496;SDS011;5805;51.542;7.230;2023-12-07T04:17:49;26.85;;;15.20;;
11496;SDS011;5805;51.542;7.230;2023-12-07T04:20:16;25.80;;;15.27;;
11496;SDS011;5805;51.542;7.230;2023-12-07T04:22:42;25.42;;;16.85;;
11496;SDS011;5805;51.542;7.230;2023-12-07T04:25:09;26.85;;;15.80;;
11496;SDS011;5805;51.542;7.230;2023-12-07T04:27:36;28.80;;;16.25;;
11496;SDS011;5805;51.542;7.230;2023-12-07T04:30:02;25.33;;;15.65;;
11496;SDS011;5805;51.542;7.230;2023-12-07T04:32:28;25.15;;;15.20;;
11496;SDS011;5805;51.542;7.230;2023-12-07T04:34:54;26.30;;;15.20;;
11496;SDS011;5805;51.542;7.230;2023-12-07T04:37:19;27.20;;;15.95;;
11496;SDS011;5805;51.542;7.230;2023-12-07T04:39:45;28.55;;;16.65;;
11496;SDS011;5805;51.542;7.230;2023-12-07T04:42:11;28.58;;;16.95;;
11496;SDS011;5805;51.542;7.230;2023-12-07T04:44:38;27.83;;;16.13;;
11496;SDS011;5805;51.542;7.230;2023-12-07T04:47:04;27.65;;;16.13;;
11496;SDS011;5805;51.542;7.230;2023-12-07T04:49:30;30.85;;;16.88;;
11496;SDS011;5805;51.542;7.230;2023-12-07T04:51:56;27.75;;;16.15;;
11496;SDS011;5805;51.542;7.230;2023-12-07T04:54:21;32.13;;;17.23;;
11496;SDS011;5805;51.542;7.230;2023-12-07T04:56:47;33.75;;;17.33;;
11496;SDS011;5805;51.542;7.230;2023-12-07T04:59:13;32.40;;;17.65;;
11496;SDS011;5805;51.542;7.230;2023-12-07T05:01:40;31.90;;;18.48;;
11496;SDS011;5805;51.542;7.230;2023-12-07T05:04:06;37.53;;;17.58;;
11496;SDS011;5805;51.542;7.230;2023-12-07T05:06:32;28.52;;;16.40;;
11496;SDS011;5805;51.542;7.230;2023-12-07T05:08:57;31.63;;;16.98;;
11496;SDS011;5805;51.542;7.230;2023-12-07T05:11:23;23.73;;;15.38;;
11496;SDS011;5805;51.542;7.230;2023-12-07T05:13:49;24.45;;;16.02;;
11496;SDS011;5805;51.542;7.230;2023-12-07T05:16:15;28.88;;;15.88;;
11496;SDS011;5805;51.542;7.230;2023-12-07T05:18:42;29.90;;;17.10;;
11496;SDS011;5805;51.542;7.230;2023-12-07T05:21:09;28.17;;;15.98;;
11496;SDS011;5805;51.542;7.230;2023-12-07T05:23:35;25.77;;;17.02;;
11496;SDS011;5805;51.542;7.230;2023-12-07T05:26:00;23.75;;;14.93;;
11496;SDS011;5805;51.542;7.230;2023-12-07T05:28:26;24.55;;;15.80;;
11496;SDS011;5805;51.542;7.230;2023-12-07T05:30:52;24.52;;;14.93;;
11496;SDS011;5805;51.542;7.230;2023-12-07T05:33:18;21.48;;;14.75;;
11496;SDS011;5805;51.542;7.230;2023-12-07T05:35:45;23.45;;;14.75;;
11496;SDS011;5805;51.542;7.230;2023-12-07T05:38:11;26.27;;;15.30;;
11496;SDS011;5805;51.542;7.230;2023-12-07T05:40:37;20.63;;;13.95;;
11496;SDS011;5805;51.542;7.230;2023-12-07T05:43:03;17.83;;;12.27;;
11496;SDS011;5805;51.542;7.230;2023-12-07T05:45:29;17.52;;;11.55;;
11496;SDS011;5805;51.542;7.230;2023-12-07T05:47:55;15.82;;;11.43;;
11496;SDS011;5805;51.542;7.230;2023-12-07T05:50:21;19.77;;;12.82;;
11496;SDS011;5805;51.542;7.230;2023-12-07T05:52:48;16.70;;;12.48;;
11496;SDS011;5805;51.542;7.230;2023-12-07T05:55:14;21.60;;;12.88;;
11496;SDS011;5805;51.542;7.230;2023-12-07T05:57:40;17.85;;;12.68;;
11496;SDS011;5805;51.542;7.230;2023-12-07T06:00:06;19.08;;;12.10;;
11496;SDS011;5805;51.542;7.230;2023-12-07T06:02:32;19.33;;;12.20;;
11496;SDS011;5805;51.542;7.230;2023-12-07T06:04:58;18.05;;;12.45;;
11496;SDS011;5805;51.542;7.230;2023-12-07T06:07:24;17.08;;;11.60;;
11496;SDS011;5805;51.542;7.230;2023-12-07T06:09:51;21.48;;;12.25;;
11496;SDS011;5805;51.542;7.230;2023-12-07T06:12:17;19.67;;;12.32;;
11496;SDS011;5805;51.542;7.230;2023-12-07T06:14:43;18.33;;;12.85;;
11496;SDS011;5805;51.542;7.230;2023-12-07T06:17:09;18.05;;;12.55;;
11496;SDS011;5805;51.542;7.230;2023-12-07T06:19:34;21.23;;;12.57;;
11496;SDS011;5805;51.542;7.230;2023-12-07T06:22:00;21.30;;;13.57;;
11496;SDS011;5805;51.542;7.230;2023-12-07T06:24:26;20.42;;;13.50;;
11496;SDS011;5805;51.542;7.230;2023-12-07T06:26:53;17.70;;;12.63;;
11496;SDS011;5805;51.542;7.230;2023-12-07T06:29:18;18.60;;;12.93;;
11496;SDS011;5805;51.542;7.230;2023-12-07T06:31:44;19.40;;;12.32;;
11496;SDS011;5805;51.542;7.230;2023-12-07T06:34:10;19.55;;;12.45;;
11496;SDS011;5805;51.542;7.230;2023-12-07T06:36:36;18.92;;;13.00;;
11496;SDS011;5805;51.542;7.230;2023-12-07T06:39:01;18.48;;;12.52;;
11496;SDS011;5805;51.542;7.230;2023-12-07T06:41:27;18.17;;;13.05;;
11496;SDS011;5805;51.542;7.230;2023-12-07T06:43:54;17.48;;;12.93;;
11496;SDS011;5805;51.542;7.230;2023-12-07T06:46:20;16.63;;;11.82;;
11496;SDS011;5805;51.542;7.230;2023-12-07T06:48:46;19.27;;;12.68;;
11496;SDS011;5805;51.542;7.230;2023-12-07T06:51:12;19.85;;;12.32;;
11496;SDS011;5805;51.542;7.230;2023-12-07T06:53:37;17.60;;;12.73;;
11496;SDS011;5805;51.542;7.230;2023-12-07T06:56:03;18.27;;;12.60;;
11496;SDS011;5805;51.542;7.230;2023-12-07T06:58:30;19.55;;;12.48;;
11496;SDS011;5805;51.542;7.230;2023-12-07T07:00:58;18.77;;;12.75;;
11496;SDS011;5805;51.542;7.230;2023-12-07T07:03:23;19.42;;;12.82;;
11496;SDS011;5805;51.542;7.230;2023-12-07T07:05:49;19.95;;;12.68;;
11496;SDS011;5805;51.542;7.230;2023-12-07T07:08:15;17.63;;;12.25;;
11496;SDS011;5805;51.542;7.230;2023-12-07T07:10:40;18.83;;;11.95;;
11496;SDS011;5805;51.542;7.230;2023-12-07T07:13:06;17.80;;;11.98;;
11496;SDS011;5805;51.542;7.230;2023-12-07T07:15:32;22.20;;;12.65;;
11496;SDS011;5805;51.542;7.230;2023-12-07T07:18:00;21.10;;;12.57;;
11496;SDS011;5805;51.542;7.230;2023-12-07T07:20:26;20.63;;;12.80;;
11496;SDS011;5805;51.542;7.230;2023-12-07T07:22:52;16.65;;;12.52;;
11496;SDS011;5805;51.542;7.230;2023-12-07T07:25:18;21.73;;;13.63;;
11496;SDS011;5805;51.542;7.230;2023-12-07T07:27:43;16.27;;;11.23;;
11496;SDS011;5805;51.542;7.230;2023-12-07T07:30:09;19.73;;;12.45;;
11496;SDS011;5805;51.542;7.230;2023-12-07T07:32:36;19.92;;;12.93;;
11496;SDS011;5805;51.542;7.230;2023-12-07T07:35:04;17.13;;;11.77;;
11496;SDS011;5805;51.542;7.230;2023-12-07T07:37:30;18.38;;;12.63;;
11496;SDS011;5805;51.542;7.230;2023-12-07T07:39:55;18.63;;;12.07;;
11496;SDS011;5805;51.542;7.230;2023-12-07T07:42:21;20.98;;;11.70;;
11496;SDS011;5805;51.542;7.230;2023-12-07T07:44:47;20.30;;;12.38;;
11496;SDS011;5805;51.542;7.230;2023-12-07T07:47:12;19.27;;;12.63;;
11496;SDS011;5805;51.542;7.230;2023-12-07T07:49:38;18.85;;;12.98;;
11496;SDS011;5805;51.542;7.230;2023-12-07T07:52:05;15.95;;;12.05;;
11496;SDS011;5805;51.542;7.230;2023-12-07T07:54:31;16.05;;;11.13;;
11496;SDS011;5805;51.542;7.230;2023-12-07T07:56:57;19.48;;;12.43;;
11496;SDS011;5805;51.542;7.230;2023-12-07T07:59:22;17.95;;;12.70;;
11496;SDS011;5805;51.542;7.230;2023-12-07T08:01:48;20.50;;;13.10;;
11496;SDS011;5805;51.542;7.230;2023-12-07T08:04:15;22.00;;;13.52;;
11496;SDS011;5805;51.542;7.230;2023-12-07T08:06:41;19.77;;;13.77;;
11496;SDS011;5805;51.542;7.230;2023-12-07T08:09:08;17.13;;;12.23;;
11496;SDS011;5805;51.542;7.230;2023-12-07T08:11:34;20.77;;;12.95;;
11496;SDS011;5805;51.542;7.230;2023-12-07T08:14:00;18.07;;;13.17;;
11496;SDS011;5805;51.542;7.230;2023-12-07T08:16:25;19.20;;;12.38;;
11496;SDS011;5805;51.542;7.230;2023-12-07T08:18:51;19.17;;;12.95;;
11496;SDS011;5805;51.542;7.230;2023-12-07T08:21:20;17.67;;;12.40;;
11496;SDS011;5805;51.542;7.230;2023-12-07T08:31:02;20.67;;;14.10;;
11496;SDS011;5805;51.542;7.230;2023-12-07T08:33:32;21.65;;;13.80;;
11496;SDS011;5805;51.542;7.230;2023-12-07T08:35:57;22.58;;;15.38;;
11496;SDS011;5805;51.542;7.230;2023-12-07T08:38:23;22.83;;;15.02;;
11496;SDS011;5805;51.542;7.230;2023-12-07T08:40:49;21.42;;;14.75;;
11496;SDS011;5805;51.542;7.230;2023-12-07T08:43:14;19.80;;;14.23;;
11496;SDS011;5805;51.542;7.230;2023-12-07T08:45:44;20.80;;;14.90;;
11496;SDS011;5805;51.542;7.230;2023-12-07T08:48:11;19.67;;;14.25;;
11496;SDS011;5805;51.542;7.230;2023-12-07T08:50:37;20.95;;;14.30;;
11496;SDS011;5805;51.542;7.230;2023-12-07T08:53:03;19.25;;;14.32;;
11496;SDS011;5805;51.542;7.230;2023-12-07T08:55:28;20.92;;;13.55;;
11496;SDS011;5805;51.542;7.230;2023-12-07T08:57:54;21.85;;;13.85;;
11496;SDS011;5805;51.542;7.230;2023-12-07T09:00:20;18.38;;;13.32;;
11496;SDS011;5805;51.542;7.230;2023-12-07T09:02:45;18.20;;;13.68;;
11496;SDS011;5805;51.542;7.230;2023-12-07T09:05:13;20.40;;;14.07;;
11496;SDS011;5805;51.542;7.230;2023-12-07T09:07:38;18.75;;;13.05;;
11496;SDS011;5805;51.542;7.230;2023-12-07T09:10:04;18.27;;;13.00;;
11496;SDS011;5805;51.542;7.230;2023-12-07T09:12:31;16.08;;;12.18;;
11496;SDS011;5805;51.542;7.230;2023-12-07T09:14:56;17.85;;;12.20;;
11496;SDS011;5805;51.542;7.230;2023-12-07T09:17:22;20.02;;;14.38;;
11496;SDS011;5805;51.542;7.230;2023-12-07T09:19:48;18.45;;;12.98;;
11496;SDS011;5805;51.542;7.230;2023-12-07T09:22:15;17.38;;;12.60;;
11496;SDS011;5805;51.542;7.230;2023-12-07T09:24:40;17.85;;;13.00;;
11496;SDS011;5805;51.542;7.230;2023-12-07T09:27:06;19.17;;;13.70;;
11496;SDS011;5805;51.542;7.230;2023-12-07T09:29:32;19.52;;;13.95;;
11496;SDS011;5805;51.542;7.230;2023-12-07T09:31:58;19.48;;;12.65;;
11496;SDS011;5805;51.542;7.230;2023-12-07T09:34:23;17.98;;;12.25;;
11496;SDS011;5805;51.542;7.230;2023-12-07T09:36:49;16.30;;;11.88;;
11496;SDS011;5805;51.542;7.230;2023-12-07T09:39:16;20.13;;;11.63;;
11496;SDS011;5805;51.542;7.230;2023-12-07T09:41:42;14.30;;;10.80;;
11496;SDS011;5805;51.542;7.230;2023-12-07T09:44:09;15.02;;;11.30;;
11496;SDS011;5805;51.542;7.230;2023-12-07T09:46:35;14.52;;;10.55;;
11496;SDS011;5805;51.542;7.230;2023-12-07T09:49:01;14.30;;;10.20;;
11496;SDS011;5805;51.542;7.230;2023-12-07T09:51:27;12.65;;;9.80;;
11496;SDS011;5805;51.542;7.230;2023-12-07T09:53:53;11.63;;;9.38;;
11496;SDS011;5805;51.542;7.230;2023-12-07T09:56:20;14.60;;;10.40;;
11496;SDS011;5805;51.542;7.230;2023-12-07T09:58:46;14.88;;;10.07;;
11496;SDS011;5805;51.542;7.230;2023-12-07T10:01:12;15.95;;;10.02;;
11496;SDS011;5805;51.542;7.230;2023-12-07T10:03:37;12.38;;;8.63;;
11496;SDS011;5805;51.542;7.230;2023-12-07T10:06:03;13.23;;;8.88;;
11496;SDS011;5805;51.542;7.230;2023-12-07T10:08:30;10.75;;;8.18;;
11496;SDS011;5805;51.542;7.230;2023-12-07T10:11:03;11.98;;;8.35;;
11496;SDS011;5805;51.542;7.230;2023-12-07T10:13:32;12.80;;;8.90;;
11496;SDS011;5805;51.542;7.230;2023-12-07T10:16:08;10.68;;;8.45;;
11496;SDS011;5805;51.542;7.230;2023-12-07T10:18:35;13.27;;;8.40;;
11496;SDS011;5805;51.542;7.230;2023-12-07T10:21:01;9.65;;;7.93;;
11496;SDS011;5805;51.542;7.230;2023-12-07T10:23:27;10.32;;;7.40;;
11496;SDS011;5805;51.542;7.230;2023-12-07T10:25:52;9.32;;;7.13;;
11496;SDS011;5805;51.542;7.230;2023-12-07T10:28:18;9.80;;;7.30;;
11496;SDS011;5805;51.542;7.230;2023-12-07T10:30:46;13.50;;;7.88;;
11496;SDS011;5805;51.542;7.230;2023-12-07T10:33:11;10.57;;;7.97;;
11496;SDS011;5805;51.542;7.230;2023-12-07T10:35:38;12.85;;;9.18;;
11496;SDS011;5805;51.542;7.230;2023-12-07T10:38:04;11.05;;;6.97;;
11496;SDS011;5805;51.542;7.230;2023-12-07T10:40:29;9.45;;;7.03;;
11496;SDS011;5805;51.542;7.230;2023-12-07T10:42:56;10.48;;;7.30;;
11496;SDS011;5805;51.542;7.230;2023-12-07T10:48:10;7.60;;;6.45;;
11496;SDS011;5805;51.542;7.230;2023-12-07T10:50:37;9.18;;;6.90;;
11496;SDS011;5805;51.542;7.230;2023-12-07T10:53:08;8.23;;;6.82;;
11496;SDS011;5805;51.542;7.230;2023-12-07T10:55:37;9.25;;;7.18;;
11496;SDS011;5805;51.542;7.230;2023-12-07T11:51:17;6.93;;;5.07;;
11496;SDS011;5805;51.542;7.230;2023-12-07T11:53:43;10.18;;;4.93;;
11496;SDS011;5805;51.542;7.230;2023-12-07T11:56:09;7.10;;;4.90;;
11496;SDS011;5805;51.542;7.230;2023-12-07T11:58:35;8.10;;;5.90;;
11496;SDS011;5805;51.542;7.230;2023-12-07T12:01:02;5.72;;;4.68;;
11496;SDS011;5805;51.542;7.230;2023-12-07T12:03:29;6.00;;;5.35;;
11496;SDS011;5805;51.542;7.230;2023-12-07T12:05:55;6.90;;;4.95;;
11496;SDS011;5805;51.542;7.230;2023-12-07T12:08:23;7.07;;;4.55;;
11496;SDS011;5805;51.542;7.230;2023-12-07T12:10:49;8.07;;;4.38;;
11496;SDS011;5805;51.542;7.230;2023-12-07T12:13:16;5.00;;;4.15;;
11496;SDS011;5805;51.542;7.230;2023-12-07T12:15:41;5.25;;;4.05;;
11496;SDS011;5805;51.542;7.230;2023-12-07T12:18:08;5.82;;;4.28;;
11496;SDS011;5805;51.542;7.230;2023-12-07T12:20:34;7.57;;;4.88;;
11496;SDS011;5805;51.542;7.230;2023-12-07T12:23:00;7.22;;;4.95;;
11496;SDS011;5805;51.542;7.230;2023-12-07T12:25:28;5.45;;;4.30;;
11496;SDS011;5805;51.542;7.230;2023-12-07T12:27:55;6.75;;;4.70;;
11496;SDS011;5805;51.542;7.230;2023-12-07T12:30:22;7.25;;;4.97;;
11496;SDS011;5805;51.542;7.230;2023-12-07T12:32:48;5.10;;;4.60;;
11496;SDS011;5805;51.542;7.230;2023-12-07T12:35:14;6.47;;;5.18;;
11496;SDS011;5805;51.542;7.230;2023-12-07T12:37:40;6.70;;;4.60;;
11496;SDS011;5805;51.542;7.230;2023-12-07T12:40:06;8.50;;;4.68;;
11496;SDS011;5805;51.542;7.230;2023-12-07T12:42:34;7.68;;;5.45;;
11496;SDS011;5805;51.542;7.230;2023-12-07T12:45:00;6.85;;;5.28;;
11496;SDS011;5805;51.542;7.230;2023-12-07T12:47:26;7.63;;;5.45;;
11496;SDS011;5805;51.542;7.230;2023-12-07T12:49:52;6.95;;;4.80;;
11496;SDS011;5805;51.542;7.230;2023-12-07T12:52:18;7.10;;;5.25;;
11496;SDS011;5805;51.542;7.230;2023-12-07T12:54:44;6.50;;;5.13;;
11496;SDS011;5805;51.542;7.230;2023-12-07T12:57:11;7.60;;;5.25;;
11496;SDS011;5805;51.542;7.230;2023-12-07T12:59:38;6.95;;;4.68;;
11496;SDS011;5805;51.542;7.230;2023-12-07T13:02:04;5.50;;;4.45;;
11496;SDS011;5805;51.542;7.230;2023-12-07T13:04:30;6.45;;;4.65;;
11496;SDS011;5805;51.542;7.230;2023-12-07T13:06:57;6.15;;;4.93;;
11496;SDS011;5805;51.542;7.230;2023-12-07T13:09:23;6.95;;;5.35;;
11496;SDS011;5805;51.542;7.230;2023-12-07T13:11:48;7.57;;;5.05;;
11496;SDS011;5805;51.542;7.230;2023-12-07T13:14:14;6.10;;;4.97;;
11496;SDS011;5805;51.542;7.230;2023-12-07T13:16:41;6.30;;;4.63;;
11496;SDS011;5805;51.542;7.230;2023-12-07T13:19:07;7.00;;;4.97;;
11496;SDS011;5805;51.542;7.230;2023-12-07T13:21:33;6.30;;;5.13;;
11496;SDS011;5805;51.542;7.230;2023-12-07T13:23:58;6.65;;;5.28;;
11496;SDS011;5805;51.542;7.230;2023-12-07T13:26:24;7.28;;;4.97;;
11496;SDS011;5805;51.542;7.230;2023-12-07T13:28:50;6.65;;;5.25;;
11496;SDS011;5805;51.542;7.230;2023-12-07T13:31:16;10.05;;;5.22;;
11496;SDS011;5805;51.542;7.230;2023-12-07T13:33:43;6.00;;;4.55;;
11496;SDS011;5805;51.542;7.230;2023-12-07T13:36:09;6.35;;;4.93;;
11496;SDS011;5805;51.542;7.230;2023-12-07T13:38:34;5.40;;;4.72;;
11496;SDS011;5805;51.542;7.230;2023-12-07T13:41:00;6.55;;;5.35;;
11496;SDS011;5805;51.542;7.230;2023-12-07T13:43:26;7.50;;;4.70;;
11496;SDS011;5805;51.542;7.230;2023-12-07T13:45:51;6.13;;;4.97;;
11496;SDS011;5805;51.542;7.230;2023-12-07T13:48:17;7.13;;;4.70;;
11496;SDS011;5805;51.542;7.230;2023-12-07T13:50:44;5.78;;;4.18;;
11496;SDS011;5805;51.542;7.230;2023-12-07T13:53:10;7.30;;;4.78;;
11496;SDS011;5805;51.542;7.230;2023-12-07T13:55:36;5.85;;;4.25;;
11496;SDS011;5805;51.542;7.230;2023-12-07T13:58:02;7.22;;;4.97;;
11496;SDS011;5805;51.542;7.230;2023-12-07T14:00:27;5.35;;;4.18;;
11496;SDS011;5805;51.542;7.230;2023-12-07T14:02:53;7.32;;;4.90;;
11496;SDS011;5805;51.542;7.230;2023-12-07T14:05:19;5.85;;;4.28;;
11496;SDS011;5805;51.542;7.230;2023-12-07T14:07:46;5.10;;;4.45;;
11496;SDS011;5805;51.542;7.230;2023-12-07T14:10:12;6.80;;;4.70;;
11496;SDS011;5805;51.542;7.230;2023-12-07T14:12:38;6.63;;;5.03;;
11496;SDS011;5805;51.542;7.230;2023-12-07T14:15:05;5.95;;;4.97;;
11496;SDS011;5805;51.542;7.230;2023-12-07T14:17:32;6.05;;;4.60;;
11496;SDS011;5805;51.542;7.230;2023-12-07T14:19:57;7.97;;;4.57;;
11496;SDS011;5805;51.542;7.230;2023-12-07T14:22:23;6.82;;;4.93;;
11496;SDS011;5805;51.542;7.230;2023-12-07T14:24:50;7.25;;;4.40;;
11496;SDS011;5805;51.542;7.230;2023-12-07T14:27:16;6.53;;;4.65;;
11496;SDS011;5805;51.542;7.230;2023-12-07T14:29:42;4.22;;;3.78;;
11496;SDS011;5805;51.542;7.230;2023-12-07T14:32:07;6.03;;;4.57;;
11496;SDS011;5805;51.542;7.230;2023-12-07T14:34:33;5.22;;;4.47;;
11496;SDS011;5805;51.542;7.230;2023-12-07T14:36:59;6.45;;;4.40;;
11496;SDS011;5805;51.542;7.230;2023-12-07T14:39:24;8.23;;;4.78;;
11496;SDS011;5805;51.542;7.230;2023-12-07T14:41:51;6.65;;;4.97;;
11496;SDS011;5805;51.542;7.230;2023-12-07T14:44:18;7.80;;;4.78;;
11496;SDS011;5805;51.542;7.230;2023-12-07T14:46:45;6.05;;;5.43;;
11496;SDS011;5805;51.542;7.230;2023-12-07T14:49:12;6.03;;;4.93;;
11496;SDS011;5805;51.542;7.230;2023-12-07T14:51:38;7.50;;;4.90;;
11496;SDS011;5805;51.542;7.230;2023-12-07T14:54:04;6.38;;;5.13;;
11496;SDS011;5805;51.542;7.230;2023-12-07T14:56:31;7.07;;;4.70;;
11496;SDS011;5805;51.542;7.230;2023-12-07T14:58:59;8.68;;;4.65;;
11496;SDS011;5805;51.542;7.230;2023-12-07T15:01:24;5.13;;;4.25;;
11496;SDS011;5805;51.542;7.230;2023-12-07T15:03:50;7.03;;;4.25;;
11496;SDS011;5805;51.542;7.230;2023-12-07T15:06:16;5.03;;;3.75;;
11496;SDS011;5805;51.542;7.230;2023-12-07T15:08:43;5.50;;;4.35;;
11496;SDS011;5805;51.542;7.230;2023-12-07T15:11:09;5.47;;;4.07;;
11496;SDS011;5805;51.542;7.230;2023-12-07T15:13:35;7.63;;;4.10;;
11496;SDS011;5805;51.542;7.230;2023-12-07T15:16:02;6.50;;;4.28;;
11496;SDS011;5805;51.542;7.230;2023-12-07T15:18:28;4.55;;;4.07;;
11496;SDS011;5805;51.542;7.230;2023-12-07T15:20:54;5.63;;;4.40;;
11496;SDS011;5805;51.542;7.230;2023-12-07T15:23:20;5.22;;;4.07;;
11496;SDS011;5805;51.542;7.230;2023-12-07T15:25:47;5.30;;;3.78;;
11496;SDS011;5805;51.542;7.230;2023-12-07T15:28:13;5.35;;;4.50;;
11496;SDS011;5805;51.542;7.230;2023-12-07T15:30:39;5.68;;;4.65;;
11496;SDS011;5805;51.542;7.230;2023-12-07T15:33:06;7.07;;;4.80;;
11496;SDS011;5805;51.542;7.230;2023-12-07T15:35:31;7.20;;;5.20;;
11496;SDS011;5805;51.542;7.230;2023-12-07T15:37:58;7.10;;;4.82;;
11496;SDS011;5805;51.542;7.230;2023-12-07T15:40:24;5.82;;;4.85;;